Time;durP1;ratioP1;P1;durP2;ratioP2;P2;SDS_P1;SDS_P2;PMS_P1;PMS_P2;Temp;Humidity;BMP_temperature;BMP_pressure;BME280_temperature;BME280_humidity;BME280_pressure;Samples;Min_cycle;Max_cycle;Signal;HPM_P1;HPM_P2
2022/05/23 00:08:11;;;;;;;1.73;1.10;;;;;;;24.35;33.79;100013.06;20794721;27;99324;-77
2022/05/23 00:18:11;;;;;;;1.77;1.13;;;;;;;24.32;34.27;100021.31;20794856;27;98925;-77
2022/05/23 00:28:12;;;;;;;1.55;1.25;;;;;;;24.31;34.20;100028.41;20799830;27;99195;-77
2022/05/23 00:38:12;;;;;;;1.30;1.00;;;;;;;24.28;34.51;100029.53;20807950;27;98512;-77
2022/05/23 00:48:16;;;;;;;1.70;1.20;;;;;;;24.27;34.36;100025.22;20797984;27;97654;-76
2022/05/23 00:58:21;;;;;;;3.17;1.30;;;;;;;24.26;34.43;100026.22;20799060;27;97573;-77
2022/05/23 01:08:22;;;;;;;3.45;1.10;;;;;;;24.24;34.32;100017.59;20792939;27;97821;-77
2022/05/23 01:18:23;;;;;;;1.38;1.05;;;;;;;24.23;34.21;100020.38;20778670;27;97492;-77
2022/05/23 01:28:23;;;;;;;1.65;1.10;;;;;;;24.22;34.32;100016.09;20771580;27;97481;-77
2022/05/23 01:38:25;;;;;;;2.03;1.00;;;;;;;24.21;34.42;100014.44;20791164;27;97034;-76
2022/05/23 01:48:27;;;;;;;5.30;1.10;;;;;;;24.20;34.40;99999.53;20791553;27;97078;-77
2022/05/23 02:08:48;;;;;;;3.28;1.10;;;;;;;24.19;34.58;99988.09;20782460;27;101384;-75
2022/05/23 02:18:49;;;;;;;4.22;1.10;;;;;;;24.18;34.62;99986.47;20793526;27;96959;-76
2022/05/23 02:28:49;;;;;;;7.53;1.70;;;;;;;24.06;32.97;99977.88;20768023;27;98277;-77
2022/05/23 02:38:50;;;;;;;7.00;1.75;;;;;;;23.80;33.88;99988.28;20761523;27;100799;-76
2022/05/23 02:48:50;;;;;;;6.13;1.95;;;;;;;23.94;34.17;99979.88;20799465;27;97799;-76
2022/05/23 02:58:51;;;;;;;5.55;1.85;;;;;;;23.97;34.37;99989.34;20781770;27;98102;-77
2022/05/23 03:08:51;;;;;;;5.65;1.70;;;;;;;23.97;34.41;99986.69;20800029;27;101127;-77
2022/05/23 03:18:52;;;;;;;4.82;1.70;;;;;;;23.99;34.41;99990.03;20801872;27;97497;-79
2022/05/23 03:28:52;;;;;;;4.32;1.60;;;;;;;23.99;34.56;99990.03;20793923;27;98060;-76
2022/05/23 03:38:53;;;;;;;4.00;1.92;;;;;;;23.99;34.25;99987.38;20801578;27;101327;-76
2022/05/23 03:48:54;;;;;;;3.63;1.90;;;;;;;23.95;34.73;99994.78;20806094;27;97558;-76
2022/05/23 03:58:55;;;;;;;4.20;1.50;;;;;;;24.01;35.25;99989.88;20795491;27;97033;-76
2022/05/23 04:08:55;;;;;;;1.80;1.42;;;;;;;24.02;35.17;99983.59;20792813;27;100586;-76
2022/05/23 04:18:57;;;;;;;3.78;1.50;;;;;;;24.02;35.08;99995.00;20807663;27;97842;-75
2022/05/23 04:28:57;;;;;;;4.53;1.47;;;;;;;24.02;35.49;99988.91;20788186;27;98793;-77
2022/05/23 04:38:57;;;;;;;3.97;1.60;;;;;;;24.05;35.14;99980.69;20787956;27;99161;-75
2022/05/23 04:59:18;;;;;;;4.88;1.92;;;;;;;23.32;33.85;99990.91;20789113;27;98722;-76
2022/05/23 05:09:18;;;;;;;5.00;2.15;;;;;;;22.51;34.34;100015.81;20781223;27;97440;-75
2022/05/23 05:19:19;;;;;;;5.78;2.13;;;;;;;22.47;34.14;100032.03;20795319;27;97052;-77
2022/05/23 05:29:19;;;;;;;3.55;1.77;;;;;;;22.30;34.00;100026.44;20815439;27;97703;-76
2022/05/23 05:39:23;;;;;;;3.58;1.90;;;;;;;22.11;33.83;100014.00;20805265;27;97956;-76
2022/05/23 05:49:28;;;;;;;3.22;1.85;;;;;;;22.09;33.92;100017.75;20784233;27;98378;-76
2022/05/23 05:59:29;;;;;;;3.40;1.60;;;;;;;22.70;34.18;100014.16;20797023;27;97739;-73
2022/05/23 06:19:49;;;;;;;5.05;2.08;;;;;;;23.14;34.10;100032.22;20810435;27;98686;-75
2022/05/23 06:29:50;;;;;;;1.60;1.50;;;;;;;23.25;33.92;100025.97;20787517;27;99682;-75
2022/05/23 06:39:50;;;;;;;3.42;1.67;;;;;;;23.32;33.35;100017.34;20803264;27;97289;-74
2022/05/23 06:49:51;;;;;;;3.72;1.50;;;;;;;23.38;33.33;99999.28;20796337;27;98976;-75
2022/05/23 06:59:52;;;;;;;1.95;1.40;;;;;;;23.41;33.04;99986.63;20805054;27;97194;-75
2022/05/23 07:20:12;;;;;;;2.17;1.10;;;;;;;23.49;32.75;99976.13;20837326;27;96825;-75
2022/05/23 07:30:12;;;;;;;1.52;1.40;;;;;;;23.54;32.96;99967.78;20834798;27;97494;-74
2022/05/23 07:40:13;;;;;;;1.67;1.15;;;;;;;23.58;32.56;99973.63;20830754;27;97742;-73
2022/05/23 07:50:14;;;;;;;3.30;1.33;;;;;;;23.61;32.49;99962.75;20823847;27;97135;-74
2022/05/23 08:00:33;;;;;;;2.42;1.13;;;;;;;23.66;32.94;99966.63;20821496;27;96923;-75
2022/05/23 08:10:35;;;;;;;1.38;0.90;;;;;;;23.70;32.45;99953.13;20804562;27;97200;-75
2022/05/23 08:20:37;;;;;;;2.37;1.00;;;;;;;23.73;32.47;99948.38;20810679;27;97300;-75
2022/05/23 08:30:38;;;;;;;2.75;0.95;;;;;;;23.77;33.17;99939.16;20830520;27;98474;-75
2022/05/23 08:41:16;;;;;;;1.58;0.85;;;;;;;23.81;33.40;99924.69;20810179;27;98292;-75
2022/05/23 08:51:23;;;;;;;2.55;0.93;;;;;;;23.86;33.39;99926.03;20820057;27;97108;-75
2022/05/23 09:01:44;;;;;;;2.17;1.17;;;;;;;23.88;33.20;99908.22;20820838;27;96880;-75
2022/05/23 09:11:54;;;;;;;3.30;1.08;;;;;;;23.91;33.63;99900.84;20828507;27;97481;-75
2022/05/23 09:22:14;;;;;;;1.30;0.85;;;;;;;23.93;33.05;99888.31;20830331;27;98608;-75
2022/05/23 09:32:17;;;;;;;1.90;1.08;;;;;;;23.97;33.29;99892.34;20793433;27;100204;-74
2022/05/23 09:52:49;;;;;;;1.73;1.10;;;;;;;24.06;33.33;99880.03;20803984;27;96957;-77
2022/05/23 10:03:01;;;;;;;3.05;1.00;;;;;;;24.10;33.65;99869.97;20794441;27;96837;-75
2022/05/23 10:13:23;;;;;;;2.00;1.02;;;;;;;24.14;33.53;99872.19;20793912;27;99088;-74
2022/05/23 10:23:25;;;;;;;3.35;1.30;;;;;;;24.18;33.49;99862.13;20788867;27;97303;-75
2022/05/23 10:33:28;;;;;;;3.70;1.00;;;;;;;24.23;33.58;99854.56;20793886;27;97788;-74
2022/05/23 10:43:29;;;;;;;2.13;1.10;;;;;;;24.28;33.30;99848.81;20805170;27;98826;-74
2022/05/23 10:53:41;;;;;;;27.42;15.57;;;;;;;24.33;33.60;99833.31;20820692;27;98615;-74
2022/05/23 11:04:04;;;;;;;18.08;10.82;;;;;;;24.41;34.12;99817.50;20814605;27;97836;-75
2022/05/23 11:14:32;;;;;;;16.60;8.23;;;;;;;24.49;33.75;99800.84;20825678;27;97467;-76
2022/05/23 11:24:33;;;;;;;13.68;6.68;;;;;;;24.59;33.35;99795.44;20816208;27;99069;-76
2022/05/23 11:34:57;;;;;;;10.05;5.00;;;;;;;24.64;33.52;99794.97;20821663;27;97494;-75
2022/05/23 11:55:51;;;;;;;3.88;1.45;;;;;;;24.37;28.14;99794.16;20815570;27;97398;-74
2022/05/23 12:06:17;;;;;;;3.92;1.40;;;;;;;24.39;29.22;99789.50;20808066;27;98344;-73
2022/05/23 12:16:30;;;;;;;7.45;1.83;;;;;;;24.37;30.00;99794.97;20833071;27;96998;-73
2022/05/23 12:26:32;;;;;;;2.22;1.23;;;;;;;24.41;30.80;99790.19;20827506;27;96903;-74
2022/05/23 12:36:51;;;;;;;2.75;1.50;;;;;;;24.45;31.49;99765.91;20816365;27;96744;-74
2022/05/23 12:47:19;;;;;;;3.35;1.60;;;;;;;24.42;29.34;99752.97;20801525;27;96712;-74
2022/05/23 12:57:42;;;;;;;5.03;1.30;;;;;;;24.47;28.58;99736.63;20782402;27;99906;-74
2022/05/23 13:07:51;;;;;;;2.72;1.40;;;;;;;24.49;29.91;99726.75;20818261;27;97330;-74
2022/05/23 13:17:51;;;;;;;1.67;1.27;;;;;;;24.54;29.93;99708.56;20813939;27;97741;-73
2022/05/23 13:27:58;;;;;;;4.17;1.50;;;;;;;24.60;30.49;99710.56;20806831;27;97632;-76
2022/05/23 13:38:32;;;;;;;2.78;1.30;;;;;;;24.65;30.38;99701.34;20801565;27;101230;-77
2022/05/23 13:48:41;;;;;;;5.15;1.67;;;;;;;24.63;28.47;99688.25;20774787;27;97443;-76
2022/05/23 13:58:53;;;;;;;4.65;1.40;;;;;;;24.59;29.73;99682.44;20781899;27;96960;-78
2022/05/23 14:09:00;;;;;;;3.50;1.38;;;;;;;24.65;29.82;99667.75;20825622;27;98271;-76
2022/05/23 14:19:25;;;;;;;6.88;1.48;;;;;;;24.70;30.14;99662.84;20819418;27;97525;-75
2022/05/23 14:29:27;;;;;;;3.72;1.20;;;;;;;24.77;30.12;99658.56;20821072;27;96943;-75
2022/05/23 14:39:30;;;;;;;2.00;1.50;;;;;;;24.81;28.78;99647.66;20792826;27;97839;-76
2022/05/23 14:49:32;;;;;;;4.30;1.88;;;;;;;24.82;29.38;99644.84;20795065;27;98723;-77
2022/05/23 15:10:06;;;;;;;5.35;1.90;;;;;;;24.87;28.78;99625.84;20805418;27;101843;-76
2022/05/23 15:20:10;;;;;;;2.63;1.52;;;;;;;24.86;28.87;99611.75;20816124;27;99156;-76
2022/05/23 15:30:22;;;;;;;1.98;1.40;;;;;;;24.93;29.41;99598.72;20818239;27;98643;-76
2022/05/23 15:40:24;;;;;;;2.33;1.52;;;;;;;25.03;29.53;99580.81;20801473;27;100388;-76
2022/05/23 15:50:24;;;;;;;3.85;1.70;;;;;;;25.12;29.26;99581.69;20801876;27;100532;-76
2022/05/23 16:00:27;;;;;;;3.40;1.88;;;;;;;25.10;28.81;99579.19;20802884;27;98119;-78
2022/05/23 16:10:28;;;;;;;2.70;1.70;;;;;;;25.12;29.52;99575.53;20774142;27;98620;-78
2022/05/23 16:20:30;;;;;;;6.13;2.07;;;;;;;25.11;29.93;99564.13;20788093;27;100196;-79
2022/05/23 16:30:32;;;;;;;4.20;1.73;;;;;;;25.08;28.99;99562.66;20811869;27;98428;-73
2022/05/23 16:40:33;;;;;;;3.25;1.88;;;;;;;25.00;27.99;99553.84;20812180;27;97241;-76
2022/05/23 16:50:33;;;;;;;4.18;1.80;;;;;;;24.87;28.17;99563.09;20825158;27;100255;-75
2022/05/23 17:00:34;;;;;;;6.63;2.90;;;;;;;24.84;28.19;99573.19;20805126;27;102394;-76
2022/05/23 17:10:36;;;;;;;2.75;2.08;;;;;;;24.77;28.95;99578.31;20796145;27;98016;-77
2022/05/23 17:20:40;;;;;;;4.67;1.80;;;;;;;24.69;29.71;99579.09;20783166;27;97371;-78
2022/05/23 17:30:41;;;;;;;3.25;1.98;;;;;;;24.60;30.31;99586.16;20781467;27;98062;-78
2022/05/23 17:40:42;;;;;;;7.72;2.53;;;;;;;24.50;31.04;99582.84;20812780;27;97422;-79
2022/05/23 17:50:42;;;;;;;3.55;2.10;;;;;;;24.38;30.27;99584.13;20801117;27;98700;-79
2022/05/23 18:00:49;;;;;;;5.75;2.38;;;;;;;24.29;30.76;99593.81;20817741;27;97192;-81
2022/05/23 18:10:51;;;;;;;6.00;1.92;;;;;;;24.23;30.26;99597.09;20806790;27;97780;-78
2022/05/23 18:20:55;;;;;;;5.95;2.30;;;;;;;24.15;30.20;99592.63;20798140;27;97211;-79
2022/05/23 18:31:02;;;;;;;4.15;2.17;;;;;;;24.10;30.55;99606.31;20829166;27;98538;-80
2022/05/23 18:41:07;;;;;;;3.65;1.92;;;;;;;24.26;31.00;99631.19;20778381;27;98601;-79
2022/05/23 18:51:08;;;;;;;5.95;2.30;;;;;;;24.39;31.34;99643.97;20791805;27;97471;-80
2022/05/23 19:01:13;;;;;;;4.45;1.80;;;;;;;24.45;31.62;99644.19;20817413;27;97928;-83
2022/05/23 19:11:15;;;;;;;2.92;1.98;;;;;;;24.46;31.83;99652.94;20798960;27;97651;-83
2022/05/23 19:21:16;;;;;;;2.28;2.00;;;;;;;24.47;31.93;99665.19;20775931;27;99173;-79
2022/05/23 19:31:19;;;;;;;3.30;2.10;;;;;;;24.48;32.04;99669.50;20811341;27;99374;-79
2022/05/23 19:41:19;;;;;;;3.15;1.98;;;;;;;24.48;31.93;99690.66;20814872;27;97149;-79
2022/05/23 19:51:21;;;;;;;3.60;1.95;;;;;;;24.48;32.30;99676.63;20808478;27;97947;-81
2022/05/23 20:01:24;;;;;;;2.03;1.80;;;;;;;24.49;32.66;99657.94;20825468;27;97287;-80
2022/05/23 20:11:27;;;;;;;3.50;2.00;;;;;;;24.49;33.09;99668.50;20819518;27;98229;-81
2022/05/23 20:21:28;;;;;;;2.75;1.95;;;;;;;24.48;33.12;99661.56;20799472;27;97859;-80
2022/05/23 20:31:29;;;;;;;2.50;1.80;;;;;;;24.48;33.46;99656.28;20814048;27;100250;-79
2022/05/23 20:41:30;;;;;;;2.60;1.65;;;;;;;24.48;33.44;99663.38;20818426;27;98912;-78
2022/05/23 20:51:31;;;;;;;2.50;1.90;;;;;;;24.48;33.57;99663.38;20823331;27;101152;-79
2022/05/23 21:01:32;;;;;;;4.73;2.00;;;;;;;24.46;33.61;99661.72;20828211;27;99246;-79
2022/05/23 21:11:34;;;;;;;4.07;2.22;;;;;;;24.45;33.63;99649.47;20823427;27;97946;-79
2022/05/23 21:21:35;;;;;;;3.08;1.52;;;;;;;24.43;33.56;99653.28;20817756;27;97786;-80
2022/05/23 21:31:36;;;;;;;2.55;1.85;;;;;;;24.42;33.90;99670.94;20792874;27;97683;-80
2022/05/23 21:52:28;;;;;;;1.88;1.67;;;;;;;24.43;33.93;99661.22;20776752;27;98158;-79
2022/05/23 22:02:29;;;;;;;2.20;1.80;;;;;;;24.42;33.88;99678.88;20790473;27;100920;-79
2022/05/23 22:12:29;;;;;;;1.80;1.50;;;;;;;24.43;33.83;99682.38;20794829;27;97644;-79
2022/05/23 22:22:30;;;;;;;5.03;2.05;;;;;;;24.42;33.98;99692.13;20802225;27;96928;-79
2022/05/23 22:32:30;;;;;;;2.10;1.73;;;;;;;24.46;34.02;99700.56;20775266;27;98442;-79
2022/05/23 22:42:31;;;;;;;3.63;1.75;;;;;;;24.49;33.84;99696.81;20800598;27;97042;-78
2022/05/23 22:52:31;;;;;;;3.40;2.08;;;;;;;24.49;33.86;99694.97;20791551;27;98191;-78
2022/05/23 23:04:20;;;;;;;3.40;1.70;;;;;;;24.48;34.09;99688.03;20799311;27;98763;-79
2022/05/23 23:12:52;;;;;;;1.80;1.48;;;;;;;24.49;33.89;99691.53;20793704;27;97892;-79
2022/05/23 23:22:53;;;;;;;1.83;1.50;;;;;;;24.49;33.76;99694.16;20803536;27;98058;-79
2022/05/23 23:37:51;;;;;;;3.53;1.70;;;;;;;24.47;33.93;99691.66;20793377;27;96904;-79
2022/05/23 23:43:14;;;;;;;2.10;1.42;;;;;;;24.45;33.73;99681.22;20793094;27;102299;-79
2022/05/23 23:53:15;;;;;;;4.88;1.70;;;;;;;24.44;33.92;99653.09;20808030;27;98113;-79
